sensor_id;sensor_type;location;lat;lon;timestamp;P1;durP1;ratioP1;P2;durP2;ratioP2
56631;SDS011;42503;39.928;-75.152;2022-12-18T00:05:52;5.30;;;2.50;;
56631;SDS011;42503;39.928;-75.152;2022-12-18T00:15:53;4.47;;;2.58;;
56631;SDS011;42503;39.928;-75.152;2022-12-18T00:25:55;8.68;;;2.45;;
56631;SDS011;42503;39.928;-75.152;2022-12-18T00:36:04;6.00;;;2.75;;
56631;SDS011;42503;39.928;-75.152;2022-12-18T00:46:07;5.13;;;2.03;;
56631;SDS011;42503;39.928;-75.152;2022-12-18T00:56:08;6.10;;;2.28;;
56631;SDS011;42503;39.928;-75.152;2022-12-18T01:06:10;4.03;;;2.03;;
56631;SDS011;42503;39.928;-75.152;2022-12-18T01:16:13;5.85;;;2.10;;
56631;SDS011;42503;39.928;-75.152;2022-12-18T01:26:16;9.40;;;2.08;;
56631;SDS011;42503;39.928;-75.152;2022-12-18T01:36:18;5.07;;;2.10;;
56631;SDS011;42503;39.928;-75.152;2022-12-18T01:46:22;11.27;;;2.38;;
56631;SDS011;42503;39.928;-75.152;2022-12-18T01:56:24;3.00;;;1.58;;
56631;SDS011;42503;39.928;-75.152;2022-12-18T02:06:31;4.63;;;1.80;;
56631;SDS011;42503;39.928;-75.152;2022-12-18T02:26:59;4.97;;;1.48;;
56631;SDS011;42503;39.928;-75.152;2022-12-18T02:37:07;2.30;;;1.60;;
56631;SDS011;42503;39.928;-75.152;2022-12-18T02:47:14;5.15;;;2.00;;
56631;SDS011;42503;39.928;-75.152;2022-12-18T02:57:31;3.47;;;1.35;;
56631;SDS011;42503;39.928;-75.152;2022-12-18T03:07:40;7.15;;;2.25;;
56631;SDS011;42503;39.928;-75.152;2022-12-18T03:17:54;4.07;;;1.48;;
56631;SDS011;42503;39.928;-75.152;2022-12-18T03:28:00;5.97;;;1.53;;
56631;SDS011;42503;39.928;-75.152;2022-12-18T03:38:05;7.18;;;1.67;;
56631;SDS011;42503;39.928;-75.152;2022-12-18T03:48:20;3.88;;;1.35;;
56631;SDS011;42503;39.928;-75.152;2022-12-18T03:58:29;2.08;;;1.40;;
56631;SDS011;42503;39.928;-75.152;2022-12-18T04:08:34;2.30;;;1.30;;
56631;SDS011;42503;39.928;-75.152;2022-12-18T04:18:36;3.03;;;1.30;;
56631;SDS011;42503;39.928;-75.152;2022-12-18T04:28:39;2.45;;;1.42;;
56631;SDS011;42503;39.928;-75.152;2022-12-18T04:38:41;1.58;;;1.20;;
56631;SDS011;42503;39.928;-75.152;2022-12-18T04:48:44;2.35;;;1.48;;
56631;SDS011;42503;39.928;-75.152;2022-12-18T04:58:46;1.77;;;1.35;;
56631;SDS011;42503;39.928;-75.152;2022-12-18T05:08:48;2.35;;;1.40;;
56631;SDS011;42503;39.928;-75.152;2022-12-18T05:18:49;3.35;;;1.63;;
56631;SDS011;42503;39.928;-75.152;2022-12-18T05:28:50;3.22;;;1.30;;
56631;SDS011;42503;39.928;-75.152;2022-12-18T05:38:52;2.65;;;1.50;;
56631;SDS011;42503;39.928;-75.152;2022-12-18T05:48:58;1.63;;;1.25;;
56631;SDS011;42503;39.928;-75.152;2022-12-18T05:59:01;2.17;;;1.23;;
56631;SDS011;42503;39.928;-75.152;2022-12-18T06:09:03;2.38;;;1.45;;
56631;SDS011;42503;39.928;-75.152;2022-12-18T06:19:12;3.33;;;1.60;;
56631;SDS011;42503;39.928;-75.152;2022-12-18T06:29:15;1.25;;;1.10;;
56631;SDS011;42503;39.928;-75.152;2022-12-18T06:39:17;1.70;;;1.23;;
56631;SDS011;42503;39.928;-75.152;2022-12-18T06:49:18;1.63;;;1.52;;
56631;SDS011;42503;39.928;-75.152;2022-12-18T06:59:20;1.98;;;1.00;;
56631;SDS011;42503;39.928;-75.152;2022-12-18T07:09:21;2.58;;;1.40;;
56631;SDS011;42503;39.928;-75.152;2022-12-18T07:19:22;1.77;;;1.30;;
56631;SDS011;42503;39.928;-75.152;2022-12-18T07:29:24;1.85;;;1.10;;
56631;SDS011;42503;39.928;-75.152;2022-12-18T07:39:25;1.80;;;1.17;;
56631;SDS011;42503;39.928;-75.152;2022-12-18T07:49:29;1.73;;;1.23;;
56631;SDS011;42503;39.928;-75.152;2022-12-18T07:59:34;1.92;;;1.17;;
56631;SDS011;42503;39.928;-75.152;2022-12-18T08:09:36;1.55;;;1.20;;
56631;SDS011;42503;39.928;-75.152;2022-12-18T08:19:37;2.13;;;1.20;;
56631;SDS011;42503;39.928;-75.152;2022-12-18T08:29:38;2.00;;;1.25;;
56631;SDS011;42503;39.928;-75.152;2022-12-18T08:39:40;1.40;;;1.30;;
56631;SDS011;42503;39.928;-75.152;2022-12-18T08:49:41;2.08;;;1.40;;
56631;SDS011;42503;39.928;-75.152;2022-12-18T08:59:45;1.27;;;1.00;;
56631;SDS011;42503;39.928;-75.152;2022-12-18T09:09:46;1.58;;;1.25;;
56631;SDS011;42503;39.928;-75.152;2022-12-18T09:19:48;1.55;;;1.08;;
56631;SDS011;42503;39.928;-75.152;2022-12-18T09:29:55;1.27;;;1.10;;
56631;SDS011;42503;39.928;-75.152;2022-12-18T09:39:59;1.50;;;1.00;;
56631;SDS011;42503;39.928;-75.152;2022-12-18T09:50:02;1.33;;;1.08;;
56631;SDS011;42503;39.928;-75.152;2022-12-18T10:00:26;1.58;;;1.20;;
56631;SDS011;42503;39.928;-75.152;2022-12-18T10:10:46;1.48;;;1.00;;
56631;SDS011;42503;39.928;-75.152;2022-12-18T10:20:54;1.27;;;1.00;;
56631;SDS011;42503;39.928;-75.152;2022-12-18T10:31:00;1.20;;;0.97;;
56631;SDS011;42503;39.928;-75.152;2022-12-18T10:41:04;1.48;;;1.20;;
56631;SDS011;42503;39.928;-75.152;2022-12-18T10:51:06;2.05;;;1.20;;
56631;SDS011;42503;39.928;-75.152;2022-12-18T11:11:20;2.58;;;1.35;;
56631;SDS011;42503;39.928;-75.152;2022-12-18T11:21:22;1.45;;;1.17;;
56631;SDS011;42503;39.928;-75.152;2022-12-18T11:31:24;1.55;;;1.20;;
56631;SDS011;42503;39.928;-75.152;2022-12-18T11:41:34;1.27;;;1.17;;
56631;SDS011;42503;39.928;-75.152;2022-12-18T12:02:38;1.10;;;1.00;;
56631;SDS011;42503;39.928;-75.152;2022-12-18T12:13:07;1.17;;;1.02;;
56631;SDS011;42503;39.928;-75.152;2022-12-18T12:43:46;1.03;;;0.93;;
56631;SDS011;42503;39.928;-75.152;2022-12-18T12:53:50;1.20;;;1.10;;
56631;SDS011;42503;39.928;-75.152;2022-12-18T13:04:08;1.23;;;1.10;;
56631;SDS011;42503;39.928;-75.152;2022-12-18T13:14:30;1.38;;;1.10;;
56631;SDS011;42503;39.928;-75.152;2022-12-18T13:24:32;1.23;;;1.13;;
56631;SDS011;42503;39.928;-75.152;2022-12-18T13:34:37;1.13;;;1.02;;
56631;SDS011;42503;39.928;-75.152;2022-12-18T13:44:39;1.38;;;1.23;;
56631;SDS011;42503;39.928;-75.152;2022-12-18T13:54:42;1.25;;;1.15;;
56631;SDS011;42503;39.928;-75.152;2022-12-18T14:04:48;1.17;;;1.08;;
56631;SDS011;42503;39.928;-75.152;2022-12-18T14:14:51;1.42;;;1.02;;
56631;SDS011;42503;39.928;-75.152;2022-12-18T14:35:18;1.33;;;1.17;;
56631;SDS011;42503;39.928;-75.152;2022-12-18T14:45:39;2.70;;;1.35;;
56631;SDS011;42503;39.928;-75.152;2022-12-18T14:55:45;2.58;;;0.98;;
56631;SDS011;42503;39.928;-75.152;2022-12-18T15:06:27;2.70;;;0.90;;
56631;SDS011;42503;39.928;-75.152;2022-12-18T15:16:31;1.70;;;1.23;;
56631;SDS011;42503;39.928;-75.152;2022-12-18T15:26:32;2.75;;;1.10;;
56631;SDS011;42503;39.928;-75.152;2022-12-18T15:36:41;2.20;;;1.20;;
56631;SDS011;42503;39.928;-75.152;2022-12-18T15:46:49;4.28;;;1.42;;
56631;SDS011;42503;39.928;-75.152;2022-12-18T15:56:50;2.72;;;1.20;;
56631;SDS011;42503;39.928;-75.152;2022-12-18T16:07:11;1.20;;;1.08;;
56631;SDS011;42503;39.928;-75.152;2022-12-18T16:17:13;3.33;;;1.00;;
56631;SDS011;42503;39.928;-75.152;2022-12-18T16:27:15;5.28;;;1.30;;
56631;SDS011;42503;39.928;-75.152;2022-12-18T16:37:17;2.42;;;1.30;;
56631;SDS011;42503;39.928;-75.152;2022-12-18T16:47:19;4.68;;;1.30;;
56631;SDS011;42503;39.928;-75.152;2022-12-18T16:57:21;6.18;;;1.35;;
56631;SDS011;42503;39.928;-75.152;2022-12-18T17:07:23;2.20;;;1.10;;
56631;SDS011;42503;39.928;-75.152;2022-12-18T17:17:28;2.25;;;1.10;;
56631;SDS011;42503;39.928;-75.152;2022-12-18T17:27:29;2.25;;;1.10;;
56631;SDS011;42503;39.928;-75.152;2022-12-18T17:37:30;3.05;;;1.10;;
56631;SDS011;42503;39.928;-75.152;2022-12-18T17:47:34;3.58;;;1.30;;
56631;SDS011;42503;39.928;-75.152;2022-12-18T17:57:36;1.67;;;0.93;;
56631;SDS011;42503;39.928;-75.152;2022-12-18T18:07:37;2.35;;;0.95;;
56631;SDS011;42503;39.928;-75.152;2022-12-18T18:17:39;1.10;;;1.00;;
56631;SDS011;42503;39.928;-75.152;2022-12-18T18:27:40;2.90;;;1.27;;
56631;SDS011;42503;39.928;-75.152;2022-12-18T18:37:42;1.40;;;0.80;;
56631;SDS011;42503;39.928;-75.152;2022-12-18T18:47:50;5.47;;;1.13;;
56631;SDS011;42503;39.928;-75.152;2022-12-18T18:57:52;2.70;;;1.10;;
56631;SDS011;42503;39.928;-75.152;2022-12-18T19:07:56;1.35;;;0.95;;
56631;SDS011;42503;39.928;-75.152;2022-12-18T19:17:58;1.13;;;0.90;;
56631;SDS011;42503;39.928;-75.152;2022-12-18T19:27:59;1.17;;;0.90;;
56631;SDS011;42503;39.928;-75.152;2022-12-18T19:38:00;5.03;;;1.50;;
56631;SDS011;42503;39.928;-75.152;2022-12-18T19:48:02;1.45;;;1.10;;
56631;SDS011;42503;39.928;-75.152;2022-12-18T19:58:04;1.42;;;1.10;;
56631;SDS011;42503;39.928;-75.152;2022-12-18T20:08:05;1.60;;;0.93;;
56631;SDS011;42503;39.928;-75.152;2022-12-18T20:18:07;3.33;;;1.00;;
56631;SDS011;42503;39.928;-75.152;2022-12-18T20:28:11;2.50;;;0.80;;
56631;SDS011;42503;39.928;-75.152;2022-12-18T20:38:13;2.05;;;0.98;;
56631;SDS011;42503;39.928;-75.152;2022-12-18T20:48:14;1.52;;;0.80;;
56631;SDS011;42503;39.928;-75.152;2022-12-18T20:58:16;1.27;;;1.17;;
56631;SDS011;42503;39.928;-75.152;2022-12-18T21:08:17;1.55;;;1.00;;
56631;SDS011;42503;39.928;-75.152;2022-12-18T21:18:18;1.40;;;0.70;;
56631;SDS011;42503;39.928;-75.152;2022-12-18T21:28:20;8.32;;;1.25;;
56631;SDS011;42503;39.928;-75.152;2022-12-18T21:38:21;4.28;;;0.98;;
56631;SDS011;42503;39.928;-75.152;2022-12-18T21:48:22;3.72;;;1.05;;
56631;SDS011;42503;39.928;-75.152;2022-12-18T21:58:29;5.93;;;1.10;;
56631;SDS011;42503;39.928;-75.152;2022-12-18T22:08:31;8.32;;;1.52;;
56631;SDS011;42503;39.928;-75.152;2022-12-18T22:18:32;3.83;;;1.33;;
56631;SDS011;42503;39.928;-75.152;2022-12-18T22:28:34;9.10;;;1.83;;
56631;SDS011;42503;39.928;-75.152;2022-12-18T22:38:54;4.78;;;1.85;;
56631;SDS011;42503;39.928;-75.152;2022-12-18T22:48:55;5.05;;;1.33;;
56631;SDS011;42503;39.928;-75.152;2022-12-18T22:58:56;5.40;;;1.42;;
56631;SDS011;42503;39.928;-75.152;2022-12-18T23:09:00;4.25;;;1.20;;
56631;SDS011;42503;39.928;-75.152;2022-12-18T23:19:04;3.90;;;1.20;;
56631;SDS011;42503;39.928;-75.152;2022-12-18T23:29:06;2.70;;;1.10;;
56631;SDS011;42503;39.928;-75.152;2022-12-18T23:39:09;2.95;;;1.20;;
56631;SDS011;42503;39.928;-75.152;2022-12-18T23:49:12;2.83;;;1.15;;
56631;SDS011;42503;39.928;-75.152;2022-12-18T23:59:13;1.52;;;1.05;;
